KGUP/GUP METAR and TAF weather

Enter ICAO airport designator
Station Type Date Time Source
KGUP METAR 2021/03/01 02:53 UTC NOAA

KGUP 010253Z AUTO 04005KT 10SM CLR M04/M23 A3018 RMK AO2 UPB26E48 SLP269 P0000 60000 T10441228 51026


Station Type Date Time Source
KGUP Decoded METAR 2021/03/01 02:53 UTC NOAA

GALLUP MUNICIPAL AIRPORT, NM, United States (KGUP) 35-31N 108-47W 1971M
Feb 28, 2021 - 09:53 PM EST / 2021.03.01 0253 UTC
Wind: from the NE (040 degrees) at 6 MPH (5 KT):0
Visibility: 10 mile(s):0
Sky conditions: clear
Precipitation last hour: A trace
Temperature: 24.1 F (-4.4 C)
Windchill: 17 F (-8 C):1
Dew Point: -9.0 F (-22.8 C)
Relative Humidity: 22%
Pressure (altimeter): 30.18 in. Hg (1022 hPa)
Pressure tendency: 0.08 inches (2.6 hPa) higher than three hours ago
ob: KGUP 010253Z AUTO 04005KT 10SM CLR M04/M23 A3018 RMK AO2 UPB26E48 SLP269 P0000 60000 T10441228 51026
cycle: 3

Station Type Date Time Source
KGUP TAF 2021/02/28 22:36 UTC NOAA

TAF
AMD KGUP 282135Z 2822/0118 02012G22KT P6SM BKN080
FM010300 01009KT P6SM SCT080
FM010800 VRB03KT P6SM SKC

Example: see airport list